Gainesville, FL

Saat: 08:49 AM EDT Tarix: 29 Avgust 2016 (GMT -0400)
NE Gainesville | | Change Station

Elev 188 ft 29.66 °N, 82.31 °W | Updated 1 second ago

Clear
A
78.3 ° F
Feels Like 81 ° F
N
0.0
K Də K from
Gusts 3.0 mph

Bug
High -- | Low -- ° F
--% Chance of Precip.
Yesterday
High -- | Low -- ° F
Precip. -- in
Təzyiq 29.99 in
G 10.0 mil
Buludlar A
Hərarət 81 ° F
75 ° F
Nəmin faizi 91%
Rainfall 0.00 in
Snow Depth Not available.
7:05 AM 7:54 PM
Waning Crescent, 9% visible
METAR KGNV 291153Z 03004KT 10SM CLR 26/24 A3000 RMK AO2 SLP154 70005 T02560239 10256 20244 53007
Təzyiq 29.99 in
G 10.0 mil
Buludlar A
Hərarət 81 ° F
75 ° F
Nəmin faizi 91%
Rainfall 0.00 in
Snow Depth Not available.
7:05 AM 7:54 PM
Waning Crescent, 9% visible
METAR KGNV 291153Z 03004KT 10SM CLR 26/24 A3000 RMK AO2 SLP154 70005 T02560239 10256 20244 53007
The area of storminess, previously known as Invest 99-L that we were monitoring for days, finally developed into Tropical Depression Nine near the Florida Keys on Sunday evening.

There remains a large degree of uncertainty around how much this system will strengthen once it gets into the southeast Gulf of Mexico. For now, the clockwise flow around upper-level high pressure over the eastern United States will steer Tropical Depression Nine west-northwest toward the Gulf. That high will weaken by Tuesday, allowing this system to move more north, and then eventually northeast the next several days on a path toward the Florida Gulf Coast.

10-Day Weather Forecast

Almanac

Astronomy

Aug. 29, 2016 Rise Set
Actual Time
Civil Twilight
Nautical Twilight
Astronomical Twilight
Ay
Length Of Visible Light
Length of Day
Tomorrow will be .
, % of the Moon is Illuminated

Today's Extremes

State Highs State Lows

Community

WunderPhotos

Upload Photos

1,935,810 photos uploaded!

WunderBlog® & News

Nearby

Air Quality

  Air Quality AQ Index Pollutant
Not available.

Snow Depth

Station Depth Elevation

Earthquake Activity

Distance Mag. Time & Date
Minimum magnitude displayed is 2.5.

Coastal Water Temperatures

Yer Hərarət

Stations

Nearby Weather Stations

Station Location Temp Əsinti Nəmin faizi K Precip. Elev Yeniləndi Type
                   

Watches & Warnings

There are currently no watches in effect.